sensor_id;sensor_type;location;lat;lon;timestamp;P1;durP1;ratioP1;P2;durP2;ratioP2
63599;SDS011;49747;51.334;6.830;2022-11-20T00:01:18;24.85;;;13.30;;
63599;SDS011;49747;51.334;6.830;2022-11-20T00:03:49;21.48;;;12.23;;
63599;SDS011;49747;51.334;6.830;2022-11-20T00:06:18;20.70;;;12.05;;
63599;SDS011;49747;51.334;6.830;2022-11-20T00:08:45;22.42;;;12.27;;
63599;SDS011;49747;51.334;6.830;2022-11-20T00:11:20;21.15;;;11.82;;
63599;SDS011;49747;51.334;6.830;2022-11-20T00:13:49;22.30;;;12.35;;
63599;SDS011;49747;51.334;6.830;2022-11-20T00:16:18;22.90;;;13.07;;
63599;SDS011;49747;51.334;6.830;2022-11-20T00:18:47;20.88;;;12.50;;
63599;SDS011;49747;51.334;6.830;2022-11-20T00:21:15;23.35;;;12.50;;
63599;SDS011;49747;51.334;6.830;2022-11-20T00:23:44;23.58;;;11.95;;
63599;SDS011;49747;51.334;6.830;2022-11-20T00:26:12;25.40;;;12.63;;
63599;SDS011;49747;51.334;6.830;2022-11-20T00:28:41;20.00;;;11.77;;
63599;SDS011;49747;51.334;6.830;2022-11-20T00:31:09;21.45;;;12.68;;
63599;SDS011;49747;51.334;6.830;2022-11-20T00:33:37;18.85;;;11.93;;
63599;SDS011;49747;51.334;6.830;2022-11-20T00:36:05;23.30;;;11.60;;
63599;SDS011;49747;51.334;6.830;2022-11-20T00:38:34;21.20;;;12.25;;
63599;SDS011;49747;51.334;6.830;2022-11-20T00:41:02;20.70;;;11.00;;
63599;SDS011;49747;51.334;6.830;2022-11-20T00:43:30;19.83;;;8.38;;
63599;SDS011;49747;51.334;6.830;2022-11-20T00:45:58;22.02;;;11.10;;
63599;SDS011;49747;51.334;6.830;2022-11-20T00:48:25;27.80;;;14.65;;
63599;SDS011;49747;51.334;6.830;2022-11-20T00:50:51;20.38;;;12.43;;
63599;SDS011;49747;51.334;6.830;2022-11-20T00:53:18;21.50;;;11.98;;
63599;SDS011;49747;51.334;6.830;2022-11-20T00:55:54;20.88;;;12.18;;
63599;SDS011;49747;51.334;6.830;2022-11-20T00:58:37;20.17;;;11.38;;
63599;SDS011;49747;51.334;6.830;2022-11-20T01:01:09;20.45;;;12.40;;
63599;SDS011;49747;51.334;6.830;2022-11-20T01:03:36;22.55;;;13.82;;
63599;SDS011;49747;51.334;6.830;2022-11-20T01:11:01;25.48;;;15.55;;
63599;SDS011;49747;51.334;6.830;2022-11-20T01:13:29;27.05;;;15.85;;
63599;SDS011;49747;51.334;6.830;2022-11-20T01:18:36;24.88;;;15.80;;
63599;SDS011;49747;51.334;6.830;2022-11-20T01:23:32;19.30;;;12.43;;
63599;SDS011;49747;51.334;6.830;2022-11-20T01:26:04;20.50;;;12.45;;
63599;SDS011;49747;51.334;6.830;2022-11-20T01:28:33;17.75;;;11.25;;
63599;SDS011;49747;51.334;6.830;2022-11-20T01:31:00;17.15;;;11.73;;
63599;SDS011;49747;51.334;6.830;2022-11-20T01:33:27;18.00;;;11.60;;
63599;SDS011;49747;51.334;6.830;2022-11-20T01:36:02;18.58;;;11.13;;
63599;SDS011;49747;51.334;6.830;2022-11-20T01:38:30;22.05;;;11.20;;
63599;SDS011;49747;51.334;6.830;2022-11-20T01:40:57;18.80;;;11.80;;
63599;SDS011;49747;51.334;6.830;2022-11-20T01:43:24;16.67;;;10.13;;
63599;SDS011;49747;51.334;6.830;2022-11-20T01:51:18;18.67;;;11.32;;
63599;SDS011;49747;51.334;6.830;2022-11-20T01:56:20;16.98;;;10.80;;
63599;SDS011;49747;51.334;6.830;2022-11-20T01:58:49;18.38;;;10.32;;
63599;SDS011;49747;51.334;6.830;2022-11-20T02:01:20;17.80;;;10.73;;
63599;SDS011;49747;51.334;6.830;2022-11-20T02:03:47;17.63;;;10.25;;
63599;SDS011;49747;51.334;6.830;2022-11-20T02:06:29;18.70;;;10.95;;
63599;SDS011;49747;51.334;6.830;2022-11-20T02:09:00;17.88;;;9.63;;
63599;SDS011;49747;51.334;6.830;2022-11-20T02:11:27;17.67;;;10.27;;
63599;SDS011;49747;51.334;6.830;2022-11-20T02:13:55;16.30;;;9.98;;
63599;SDS011;49747;51.334;6.830;2022-11-20T02:16:23;18.13;;;10.82;;
63599;SDS011;49747;51.334;6.830;2022-11-20T02:18:50;17.98;;;10.52;;
63599;SDS011;49747;51.334;6.830;2022-11-20T02:26:28;18.23;;;10.48;;
63599;SDS011;49747;51.334;6.830;2022-11-20T02:28:56;19.15;;;11.23;;
63599;SDS011;49747;51.334;6.830;2022-11-20T02:33:55;17.98;;;10.20;;
63599;SDS011;49747;51.334;6.830;2022-11-20T02:36:26;17.90;;;10.20;;
63599;SDS011;49747;51.334;6.830;2022-11-20T02:38:54;16.48;;;10.13;;
63599;SDS011;49747;51.334;6.830;2022-11-20T02:41:21;17.55;;;10.43;;
63599;SDS011;49747;51.334;6.830;2022-11-20T02:43:48;16.73;;;9.75;;
63599;SDS011;49747;51.334;6.830;2022-11-20T02:46:14;15.60;;;9.68;;
63599;SDS011;49747;51.334;6.830;2022-11-20T02:48:41;15.65;;;10.05;;
63599;SDS011;49747;51.334;6.830;2022-11-20T02:51:07;16.63;;;9.70;;
63599;SDS011;49747;51.334;6.830;2022-11-20T02:53:34;15.40;;;9.27;;
63599;SDS011;49747;51.334;6.830;2022-11-20T02:56:00;15.25;;;9.30;;
63599;SDS011;49747;51.334;6.830;2022-11-20T02:58:27;14.90;;;9.70;;
63599;SDS011;49747;51.334;6.830;2022-11-20T03:00:53;17.35;;;9.90;;
63599;SDS011;49747;51.334;6.830;2022-11-20T03:03:20;15.23;;;9.63;;
63599;SDS011;49747;51.334;6.830;2022-11-20T03:05:46;17.02;;;10.07;;
63599;SDS011;49747;51.334;6.830;2022-11-20T03:08:13;15.75;;;9.70;;
63599;SDS011;49747;51.334;6.830;2022-11-20T03:10:39;16.38;;;9.82;;
63599;SDS011;49747;51.334;6.830;2022-11-20T03:13:06;16.27;;;10.40;;
63599;SDS011;49747;51.334;6.830;2022-11-20T03:15:32;17.83;;;10.20;;
63599;SDS011;49747;51.334;6.830;2022-11-20T03:17:59;16.80;;;9.95;;
63599;SDS011;49747;51.334;6.830;2022-11-20T03:20:25;14.35;;;9.60;;
63599;SDS011;49747;51.334;6.830;2022-11-20T03:22:53;14.27;;;9.20;;
63599;SDS011;49747;51.334;6.830;2022-11-20T03:25:20;15.25;;;9.27;;
63599;SDS011;49747;51.334;6.830;2022-11-20T03:27:47;15.10;;;9.27;;
63599;SDS011;49747;51.334;6.830;2022-11-20T03:30:14;15.52;;;9.35;;
63599;SDS011;49747;51.334;6.830;2022-11-20T03:32:41;15.43;;;9.52;;
63599;SDS011;49747;51.334;6.830;2022-11-20T03:35:08;16.13;;;9.48;;
63599;SDS011;49747;51.334;6.830;2022-11-20T03:37:35;14.10;;;9.05;;
63599;SDS011;49747;51.334;6.830;2022-11-20T03:40:02;14.60;;;8.88;;
63599;SDS011;49747;51.334;6.830;2022-11-20T03:42:28;15.32;;;9.00;;
63599;SDS011;49747;51.334;6.830;2022-11-20T03:45:14;13.95;;;9.07;;
63599;SDS011;49747;51.334;6.830;2022-11-20T03:47:41;13.77;;;8.52;;
63599;SDS011;49747;51.334;6.830;2022-11-20T03:50:09;13.90;;;9.43;;
63599;SDS011;49747;51.334;6.830;2022-11-20T03:52:38;12.75;;;8.88;;
63599;SDS011;49747;51.334;6.830;2022-11-20T03:55:06;12.95;;;8.57;;
63599;SDS011;49747;51.334;6.830;2022-11-20T03:57:33;15.13;;;9.57;;
63599;SDS011;49747;51.334;6.830;2022-11-20T03:59:59;15.52;;;8.88;;
63599;SDS011;49747;51.334;6.830;2022-11-20T04:02:29;14.20;;;9.68;;
63599;SDS011;49747;51.334;6.830;2022-11-20T04:04:56;14.50;;;9.10;;
63599;SDS011;49747;51.334;6.830;2022-11-20T04:07:22;13.90;;;9.63;;
63599;SDS011;49747;51.334;6.830;2022-11-20T04:09:49;12.55;;;8.18;;
63599;SDS011;49747;51.334;6.830;2022-11-20T04:12:16;13.25;;;8.48;;
63599;SDS011;49747;51.334;6.830;2022-11-20T04:14:42;13.52;;;9.05;;
63599;SDS011;49747;51.334;6.830;2022-11-20T04:17:09;14.27;;;9.65;;
63599;SDS011;49747;51.334;6.830;2022-11-20T04:19:35;14.73;;;9.77;;
63599;SDS011;49747;51.334;6.830;2022-11-20T04:22:02;15.25;;;9.95;;
63599;SDS011;49747;51.334;6.830;2022-11-20T04:24:28;15.60;;;9.55;;
63599;SDS011;49747;51.334;6.830;2022-11-20T04:26:55;15.55;;;9.77;;
63599;SDS011;49747;51.334;6.830;2022-11-20T04:29:21;14.57;;;9.55;;
63599;SDS011;49747;51.334;6.830;2022-11-20T04:31:48;15.05;;;9.45;;
63599;SDS011;49747;51.334;6.830;2022-11-20T04:34:15;16.00;;;9.35;;
63599;SDS011;49747;51.334;6.830;2022-11-20T04:36:41;17.15;;;10.23;;
63599;SDS011;49747;51.334;6.830;2022-11-20T04:39:11;19.25;;;10.60;;
63599;SDS011;49747;51.334;6.830;2022-11-20T04:41:39;12.68;;;9.15;;
63599;SDS011;49747;51.334;6.830;2022-11-20T04:44:06;16.67;;;9.45;;
63599;SDS011;49747;51.334;6.830;2022-11-20T04:46:37;14.82;;;8.98;;
63599;SDS011;49747;51.334;6.830;2022-11-20T04:49:05;15.82;;;10.48;;
63599;SDS011;49747;51.334;6.830;2022-11-20T04:51:33;14.85;;;9.82;;
63599;SDS011;49747;51.334;6.830;2022-11-20T04:54:00;15.68;;;9.65;;
63599;SDS011;49747;51.334;6.830;2022-11-20T04:56:27;15.75;;;9.48;;
63599;SDS011;49747;51.334;6.830;2022-11-20T04:58:53;15.57;;;9.63;;
63599;SDS011;49747;51.334;6.830;2022-11-20T05:01:21;17.67;;;10.27;;
63599;SDS011;49747;51.334;6.830;2022-11-20T05:03:49;18.33;;;11.80;;
63599;SDS011;49747;51.334;6.830;2022-11-20T05:06:17;15.18;;;9.65;;
63599;SDS011;49747;51.334;6.830;2022-11-20T05:08:45;16.02;;;10.35;;
63599;SDS011;49747;51.334;6.830;2022-11-20T05:11:13;15.05;;;9.32;;
63599;SDS011;49747;51.334;6.830;2022-11-20T05:13:44;16.45;;;10.00;;
63599;SDS011;49747;51.334;6.830;2022-11-20T05:16:12;17.17;;;10.13;;
63599;SDS011;49747;51.334;6.830;2022-11-20T05:18:41;16.55;;;9.75;;
63599;SDS011;49747;51.334;6.830;2022-11-20T05:21:08;18.63;;;10.88;;
63599;SDS011;49747;51.334;6.830;2022-11-20T05:23:35;18.10;;;10.40;;
63599;SDS011;49747;51.334;6.830;2022-11-20T05:26:03;17.50;;;10.38;;
63599;SDS011;49747;51.334;6.830;2022-11-20T05:28:31;20.75;;;11.23;;
63599;SDS011;49747;51.334;6.830;2022-11-20T05:33:35;23.30;;;11.77;;
63599;SDS011;49747;51.334;6.830;2022-11-20T05:36:03;20.35;;;11.60;;
63599;SDS011;49747;51.334;6.830;2022-11-20T05:38:30;18.00;;;11.45;;
63599;SDS011;49747;51.334;6.830;2022-11-20T05:41:07;16.48;;;10.88;;
63599;SDS011;49747;51.334;6.830;2022-11-20T05:43:36;20.48;;;12.05;;
63599;SDS011;49747;51.334;6.830;2022-11-20T05:46:04;18.83;;;12.35;;
63599;SDS011;49747;51.334;6.830;2022-11-20T05:48:31;20.58;;;12.38;;
63599;SDS011;49747;51.334;6.830;2022-11-20T05:50:59;18.23;;;11.23;;
63599;SDS011;49747;51.334;6.830;2022-11-20T05:53:26;18.17;;;11.63;;
63599;SDS011;49747;51.334;6.830;2022-11-20T05:55:59;20.50;;;12.23;;
63599;SDS011;49747;51.334;6.830;2022-11-20T05:58:29;19.20;;;11.82;;
63599;SDS011;49747;51.334;6.830;2022-11-20T06:01:03;21.17;;;12.75;;
63599;SDS011;49747;51.334;6.830;2022-11-20T06:03:50;20.98;;;12.88;;
63599;SDS011;49747;51.334;6.830;2022-11-20T06:06:18;19.58;;;11.55;;
63599;SDS011;49747;51.334;6.830;2022-11-20T06:08:45;22.75;;;13.35;;
63599;SDS011;49747;51.334;6.830;2022-11-20T06:11:12;20.20;;;11.57;;
63599;SDS011;49747;51.334;6.830;2022-11-20T06:13:40;20.85;;;11.98;;
63599;SDS011;49747;51.334;6.830;2022-11-20T06:16:08;18.65;;;11.88;;
63599;SDS011;49747;51.334;6.830;2022-11-20T06:18:35;21.25;;;11.80;;
63599;SDS011;49747;51.334;6.830;2022-11-20T06:21:06;19.73;;;11.50;;
63599;SDS011;49747;51.334;6.830;2022-11-20T06:23:34;18.25;;;12.77;;
63599;SDS011;49747;51.334;6.830;2022-11-20T06:26:03;21.98;;;11.98;;
63599;SDS011;49747;51.334;6.830;2022-11-20T06:28:33;24.23;;;12.23;;
63599;SDS011;49747;51.334;6.830;2022-11-20T06:31:00;18.42;;;11.77;;
63599;SDS011;49747;51.334;6.830;2022-11-20T06:33:27;18.55;;;11.20;;
63599;SDS011;49747;51.334;6.830;2022-11-20T06:35:57;20.85;;;12.10;;
63599;SDS011;49747;51.334;6.830;2022-11-20T06:38:28;24.95;;;12.23;;
63599;SDS011;49747;51.334;6.830;2022-11-20T06:40:55;19.05;;;10.80;;
63599;SDS011;49747;51.334;6.830;2022-11-20T06:43:23;22.65;;;12.18;;
63599;SDS011;49747;51.334;6.830;2022-11-20T06:45:53;18.40;;;12.10;;
63599;SDS011;49747;51.334;6.830;2022-11-20T06:48:21;19.92;;;11.85;;
63599;SDS011;49747;51.334;6.830;2022-11-20T06:50:49;22.05;;;12.68;;
63599;SDS011;49747;51.334;6.830;2022-11-20T06:53:15;21.15;;;12.48;;
63599;SDS011;49747;51.334;6.830;2022-11-20T06:55:42;19.52;;;12.13;;
63599;SDS011;49747;51.334;6.830;2022-11-20T06:58:10;18.58;;;10.95;;
63599;SDS011;49747;51.334;6.830;2022-11-20T07:00:37;20.50;;;11.15;;
63599;SDS011;49747;51.334;6.830;2022-11-20T07:03:04;20.63;;;11.60;;
63599;SDS011;49747;51.334;6.830;2022-11-20T07:05:35;20.77;;;12.45;;
63599;SDS011;49747;51.334;6.830;2022-11-20T07:08:02;19.45;;;11.25;;
63599;SDS011;49747;51.334;6.830;2022-11-20T07:10:29;16.88;;;10.88;;
63599;SDS011;49747;51.334;6.830;2022-11-20T07:12:56;20.85;;;12.38;;
63599;SDS011;49747;51.334;6.830;2022-11-20T07:15:24;21.60;;;10.70;;
63599;SDS011;49747;51.334;6.830;2022-11-20T07:17:51;19.15;;;12.02;;
63599;SDS011;49747;51.334;6.830;2022-11-20T07:20:18;19.35;;;11.77;;
63599;SDS011;49747;51.334;6.830;2022-11-20T07:22:45;16.02;;;10.25;;
63599;SDS011;49747;51.334;6.830;2022-11-20T07:25:11;17.55;;;10.88;;
63599;SDS011;49747;51.334;6.830;2022-11-20T07:27:38;17.90;;;11.20;;
63599;SDS011;49747;51.334;6.830;2022-11-20T07:30:04;18.63;;;12.20;;
63599;SDS011;49747;51.334;6.830;2022-11-20T07:32:31;22.08;;;12.25;;
63599;SDS011;49747;51.334;6.830;2022-11-20T07:34:58;22.58;;;11.80;;
63599;SDS011;49747;51.334;6.830;2022-11-20T07:37:24;18.70;;;12.43;;
63599;SDS011;49747;51.334;6.830;2022-11-20T07:39:51;21.17;;;12.18;;
63599;SDS011;49747;51.334;6.830;2022-11-20T07:42:17;19.75;;;12.70;;
63599;SDS011;49747;51.334;6.830;2022-11-20T07:44:44;20.90;;;11.82;;
63599;SDS011;49747;51.334;6.830;2022-11-20T07:47:10;18.38;;;11.40;;
63599;SDS011;49747;51.334;6.830;2022-11-20T07:49:37;19.42;;;12.10;;
63599;SDS011;49747;51.334;6.830;2022-11-20T07:52:03;20.45;;;12.05;;
63599;SDS011;49747;51.334;6.830;2022-11-20T07:54:30;21.70;;;11.55;;
63599;SDS011;49747;51.334;6.830;2022-11-20T07:56:57;19.23;;;11.82;;
63599;SDS011;49747;51.334;6.830;2022-11-20T07:59:24;18.73;;;12.32;;
63599;SDS011;49747;51.334;6.830;2022-11-20T08:01:50;20.13;;;12.25;;
63599;SDS011;49747;51.334;6.830;2022-11-20T08:04:17;19.23;;;12.25;;
63599;SDS011;49747;51.334;6.830;2022-11-20T08:06:43;21.10;;;11.88;;
63599;SDS011;49747;51.334;6.830;2022-11-20T08:09:10;19.88;;;12.38;;
63599;SDS011;49747;51.334;6.830;2022-11-20T08:11:36;22.80;;;11.82;;
63599;SDS011;49747;51.334;6.830;2022-11-20T08:14:22;18.88;;;11.88;;
63599;SDS011;49747;51.334;6.830;2022-11-20T08:16:49;20.60;;;11.57;;
63599;SDS011;49747;51.334;6.830;2022-11-20T08:19:16;21.27;;;12.15;;
63599;SDS011;49747;51.334;6.830;2022-11-20T08:21:44;21.48;;;12.40;;
63599;SDS011;49747;51.334;6.830;2022-11-20T08:24:11;18.30;;;11.68;;
63599;SDS011;49747;51.334;6.830;2022-11-20T08:26:38;18.63;;;11.40;;
63599;SDS011;49747;51.334;6.830;2022-11-20T08:29:06;20.67;;;11.90;;
63599;SDS011;49747;51.334;6.830;2022-11-20T08:31:32;17.02;;;11.05;;
63599;SDS011;49747;51.334;6.830;2022-11-20T08:33:59;19.50;;;11.68;;
63599;SDS011;49747;51.334;6.830;2022-11-20T08:36:32;16.95;;;10.82;;
63599;SDS011;49747;51.334;6.830;2022-11-20T08:39:00;21.17;;;11.05;;
63599;SDS011;49747;51.334;6.830;2022-11-20T08:41:28;20.92;;;12.15;;
63599;SDS011;49747;51.334;6.830;2022-11-20T08:44:04;18.88;;;10.55;;
63599;SDS011;49747;51.334;6.830;2022-11-20T08:46:35;16.42;;;10.30;;
63599;SDS011;49747;51.334;6.830;2022-11-20T08:49:04;17.98;;;10.25;;
63599;SDS011;49747;51.334;6.830;2022-11-20T08:51:32;19.83;;;11.52;;
63599;SDS011;49747;51.334;6.830;2022-11-20T08:53:58;19.42;;;12.52;;
63599;SDS011;49747;51.334;6.830;2022-11-20T08:56:25;17.67;;;11.13;;
63599;SDS011;49747;51.334;6.830;2022-11-20T08:58:52;14.73;;;9.60;;
63599;SDS011;49747;51.334;6.830;2022-11-20T09:01:38;18.67;;;10.45;;
63599;SDS011;49747;51.334;6.830;2022-11-20T09:04:05;16.00;;;9.63;;
63599;SDS011;49747;51.334;6.830;2022-11-20T09:06:32;15.23;;;9.38;;
63599;SDS011;49747;51.334;6.830;2022-11-20T09:08:58;17.20;;;10.52;;
63599;SDS011;49747;51.334;6.830;2022-11-20T09:11:32;19.27;;;10.63;;
63599;SDS011;49747;51.334;6.830;2022-11-20T09:13:59;16.00;;;9.75;;
63599;SDS011;49747;51.334;6.830;2022-11-20T09:16:26;15.48;;;10.05;;
63599;SDS011;49747;51.334;6.830;2022-11-20T09:18:52;17.30;;;9.85;;
63599;SDS011;49747;51.334;6.830;2022-11-20T09:21:38;21.83;;;9.98;;
63599;SDS011;49747;51.334;6.830;2022-11-20T09:24:05;18.98;;;11.30;;
63599;SDS011;49747;51.334;6.830;2022-11-20T09:26:31;18.95;;;10.75;;
63599;SDS011;49747;51.334;6.830;2022-11-20T09:28:58;18.25;;;10.73;;
63599;SDS011;49747;51.334;6.830;2022-11-20T09:31:25;18.70;;;10.38;;
63599;SDS011;49747;51.334;6.830;2022-11-20T09:33:52;16.55;;;10.52;;
63599;SDS011;49747;51.334;6.830;2022-11-20T09:36:18;17.35;;;9.95;;
63599;SDS011;49747;51.334;6.830;2022-11-20T09:38:45;16.13;;;10.07;;
63599;SDS011;49747;51.334;6.830;2022-11-20T09:44:00;19.13;;;11.05;;
63599;SDS011;49747;51.334;6.830;2022-11-20T09:46:50;19.15;;;10.15;;
63599;SDS011;49747;51.334;6.830;2022-11-20T09:53:13;16.92;;;9.90;;
63599;SDS011;49747;51.334;6.830;2022-11-20T09:55:42;17.52;;;10.25;;
63599;SDS011;49747;51.334;6.830;2022-11-20T09:58:24;17.08;;;9.98;;
63599;SDS011;49747;51.334;6.830;2022-11-20T10:01:00;18.38;;;10.15;;
63599;SDS011;49747;51.334;6.830;2022-11-20T10:03:37;16.40;;;8.77;;
63599;SDS011;49747;51.334;6.830;2022-11-20T10:06:12;18.60;;;9.05;;
63599;SDS011;49747;51.334;6.830;2022-11-20T10:08:45;16.40;;;9.65;;
63599;SDS011;49747;51.334;6.830;2022-11-20T10:11:19;19.98;;;10.32;;
63599;SDS011;49747;51.334;6.830;2022-11-20T10:13:57;17.35;;;10.38;;
63599;SDS011;49747;51.334;6.830;2022-11-20T10:27:46;17.10;;;9.82;;
63599;SDS011;49747;51.334;6.830;2022-11-20T10:30:37;17.20;;;9.55;;
63599;SDS011;49747;51.334;6.830;2022-11-20T10:35:43;17.20;;;10.65;;
63599;SDS011;49747;51.334;6.830;2022-11-20T10:38:16;17.70;;;10.38;;
63599;SDS011;49747;51.334;6.830;2022-11-20T10:40:55;16.80;;;9.65;;
63599;SDS011;49747;51.334;6.830;2022-11-20T10:43:46;17.02;;;10.30;;
63599;SDS011;49747;51.334;6.830;2022-11-20T10:46:18;20.10;;;10.57;;
63599;SDS011;49747;51.334;6.830;2022-11-20T10:48:50;19.50;;;11.20;;
63599;SDS011;49747;51.334;6.830;2022-11-20T10:56:29;19.65;;;10.85;;
63599;SDS011;49747;51.334;6.830;2022-11-20T10:59:26;19.25;;;9.70;;
63599;SDS011;49747;51.334;6.830;2022-11-20T11:01:51;19.73;;;10.70;;
63599;SDS011;49747;51.334;6.830;2022-11-20T11:07:30;20.05;;;10.95;;
63599;SDS011;49747;51.334;6.830;2022-11-20T11:10:05;21.67;;;11.18;;
63599;SDS011;49747;51.334;6.830;2022-11-20T11:12:50;21.25;;;10.70;;
63599;SDS011;49747;51.334;6.830;2022-11-20T11:15:27;22.33;;;11.13;;
63599;SDS011;49747;51.334;6.830;2022-11-20T11:17:54;20.23;;;10.52;;
63599;SDS011;49747;51.334;6.830;2022-11-20T11:20:22;21.70;;;11.02;;
63599;SDS011;49747;51.334;6.830;2022-11-20T11:22:51;23.88;;;12.32;;
63599;SDS011;49747;51.334;6.830;2022-11-20T11:25:30;23.55;;;11.52;;
63599;SDS011;49747;51.334;6.830;2022-11-20T11:28:03;23.10;;;12.52;;
63599;SDS011;49747;51.334;6.830;2022-11-20T11:30:41;23.15;;;11.10;;
63599;SDS011;49747;51.334;6.830;2022-11-20T11:33:11;22.98;;;11.70;;
63599;SDS011;49747;51.334;6.830;2022-11-20T11:35:48;21.52;;;11.35;;
63599;SDS011;49747;51.334;6.830;2022-11-20T11:41:06;20.15;;;10.80;;
63599;SDS011;49747;51.334;6.830;2022-11-20T11:43:36;21.63;;;10.75;;
63599;SDS011;49747;51.334;6.830;2022-11-20T11:46:32;22.40;;;11.15;;
63599;SDS011;49747;51.334;6.830;2022-11-20T11:54:36;23.20;;;10.98;;
63599;SDS011;49747;51.334;6.830;2022-11-20T11:57:11;24.17;;;12.48;;
63599;SDS011;49747;51.334;6.830;2022-11-20T11:59:47;23.40;;;11.82;;
63599;SDS011;49747;51.334;6.830;2022-11-20T12:02:32;20.42;;;10.57;;
63599;SDS011;49747;51.334;6.830;2022-11-20T12:05:44;21.42;;;10.90;;
63599;SDS011;49747;51.334;6.830;2022-11-20T12:07:56;19.40;;;10.77;;
63599;SDS011;49747;51.334;6.830;2022-11-20T12:13:16;22.73;;;11.57;;
63599;SDS011;49747;51.334;6.830;2022-11-20T12:15:53;24.20;;;11.45;;
63599;SDS011;49747;51.334;6.830;2022-11-20T12:18:20;19.98;;;10.52;;
63599;SDS011;49747;51.334;6.830;2022-11-20T12:20:53;21.25;;;11.10;;
63599;SDS011;49747;51.334;6.830;2022-11-20T12:23:44;24.55;;;11.38;;
63599;SDS011;49747;51.334;6.830;2022-11-20T12:26:18;20.60;;;10.70;;
63599;SDS011;49747;51.334;6.830;2022-11-20T12:29:08;20.48;;;10.63;;
63599;SDS011;49747;51.334;6.830;2022-11-20T12:31:43;18.80;;;10.52;;
63599;SDS011;49747;51.334;6.830;2022-11-20T12:34:40;20.85;;;10.95;;
63599;SDS011;49747;51.334;6.830;2022-11-20T12:37:19;23.85;;;11.88;;
63599;SDS011;49747;51.334;6.830;2022-11-20T12:39:50;22.73;;;11.15;;
63599;SDS011;49747;51.334;6.830;2022-11-20T12:42:42;22.83;;;11.20;;
63599;SDS011;49747;51.334;6.830;2022-11-20T12:48:33;23.98;;;11.75;;
63599;SDS011;49747;51.334;6.830;2022-11-20T12:59:08;22.88;;;12.32;;
63599;SDS011;49747;51.334;6.830;2022-11-20T13:01:51;24.33;;;12.52;;
63599;SDS011;49747;51.334;6.830;2022-11-20T13:06:55;21.02;;;11.35;;
63599;SDS011;49747;51.334;6.830;2022-11-20T13:09:23;24.05;;;12.60;;
63599;SDS011;49747;51.334;6.830;2022-11-20T13:12:10;22.23;;;11.85;;
63599;SDS011;49747;51.334;6.830;2022-11-20T13:18:04;23.10;;;12.27;;
63599;SDS011;49747;51.334;6.830;2022-11-20T13:20:44;26.30;;;12.07;;
63599;SDS011;49747;51.334;6.830;2022-11-20T13:23:11;23.17;;;11.20;;
63599;SDS011;49747;51.334;6.830;2022-11-20T13:25:48;23.38;;;12.82;;
63599;SDS011;49747;51.334;6.830;2022-11-20T13:30:51;23.17;;;12.05;;
63599;SDS011;49747;51.334;6.830;2022-11-20T13:38:26;25.48;;;12.70;;
63599;SDS011;49747;51.334;6.830;2022-11-20T13:40:59;25.35;;;12.73;;
63599;SDS011;49747;51.334;6.830;2022-11-20T13:43:47;24.25;;;11.70;;
63599;SDS011;49747;51.334;6.830;2022-11-20T13:46:14;23.45;;;12.07;;
63599;SDS011;49747;51.334;6.830;2022-11-20T13:48:45;23.30;;;11.90;;
63599;SDS011;49747;51.334;6.830;2022-11-20T13:54:05;23.83;;;13.43;;
63599;SDS011;49747;51.334;6.830;2022-11-20T14:02:37;24.95;;;13.00;;
63599;SDS011;49747;51.334;6.830;2022-11-20T14:05:04;23.67;;;12.07;;
63599;SDS011;49747;51.334;6.830;2022-11-20T14:07:32;24.13;;;11.60;;
63599;SDS011;49747;51.334;6.830;2022-11-20T14:10:18;25.88;;;13.13;;
63599;SDS011;49747;51.334;6.830;2022-11-20T14:12:46;25.83;;;13.02;;
63599;SDS011;49747;51.334;6.830;2022-11-20T14:15:27;25.88;;;13.90;;
63599;SDS011;49747;51.334;6.830;2022-11-20T14:17:57;26.95;;;13.23;;
63599;SDS011;49747;51.334;6.830;2022-11-20T14:20:27;24.90;;;14.48;;
63599;SDS011;49747;51.334;6.830;2022-11-20T14:22:57;27.42;;;14.35;;
63599;SDS011;49747;51.334;6.830;2022-11-20T14:25:24;28.02;;;14.63;;
63599;SDS011;49747;51.334;6.830;2022-11-20T14:27:57;26.70;;;14.77;;
63599;SDS011;49747;51.334;6.830;2022-11-20T14:30:35;34.78;;;17.30;;
63599;SDS011;49747;51.334;6.830;2022-11-20T14:33:05;34.28;;;15.30;;
63599;SDS011;49747;51.334;6.830;2022-11-20T14:35:37;32.90;;;14.25;;
63599;SDS011;49747;51.334;6.830;2022-11-20T14:38:17;30.35;;;15.45;;
63599;SDS011;49747;51.334;6.830;2022-11-20T14:40:46;36.28;;;15.73;;
63599;SDS011;49747;51.334;6.830;2022-11-20T14:43:26;29.38;;;14.70;;
63599;SDS011;49747;51.334;6.830;2022-11-20T14:45:55;30.25;;;14.18;;
63599;SDS011;49747;51.334;6.830;2022-11-20T14:48:26;30.38;;;15.73;;
63599;SDS011;49747;51.334;6.830;2022-11-20T14:50:57;33.03;;;15.10;;
63599;SDS011;49747;51.334;6.830;2022-11-20T14:53:24;29.52;;;15.10;;
63599;SDS011;49747;51.334;6.830;2022-11-20T14:55:55;32.47;;;16.15;;
63599;SDS011;49747;51.334;6.830;2022-11-20T14:58:27;33.78;;;14.23;;
63599;SDS011;49747;51.334;6.830;2022-11-20T15:01:06;32.35;;;14.65;;
63599;SDS011;49747;51.334;6.830;2022-11-20T15:03:40;30.15;;;14.68;;
63599;SDS011;49747;51.334;6.830;2022-11-20T15:06:07;28.20;;;14.95;;
63599;SDS011;49747;51.334;6.830;2022-11-20T15:08:38;29.52;;;14.57;;
63599;SDS011;49747;51.334;6.830;2022-11-20T15:11:14;29.67;;;14.27;;
63599;SDS011;49747;51.334;6.830;2022-11-20T15:13:44;29.63;;;14.88;;
63599;SDS011;49747;51.334;6.830;2022-11-20T15:16:20;30.33;;;14.55;;
63599;SDS011;49747;51.334;6.830;2022-11-20T15:18:50;34.28;;;15.52;;
63599;SDS011;49747;51.334;6.830;2022-11-20T15:21:18;30.60;;;15.43;;
63599;SDS011;49747;51.334;6.830;2022-11-20T15:23:47;28.90;;;15.50;;
63599;SDS011;49747;51.334;6.830;2022-11-20T15:26:14;31.08;;;14.32;;
63599;SDS011;49747;51.334;6.830;2022-11-20T15:28:48;29.80;;;13.80;;
63599;SDS011;49747;51.334;6.830;2022-11-20T15:31:17;27.23;;;13.35;;
63599;SDS011;49747;51.334;6.830;2022-11-20T15:33:46;30.70;;;14.55;;
63599;SDS011;49747;51.334;6.830;2022-11-20T15:36:12;28.95;;;13.75;;
63599;SDS011;49747;51.334;6.830;2022-11-20T15:38:39;26.92;;;13.32;;
63599;SDS011;49747;51.334;6.830;2022-11-20T15:41:07;28.77;;;14.15;;
63599;SDS011;49747;51.334;6.830;2022-11-20T15:43:34;27.58;;;14.20;;
63599;SDS011;49747;51.334;6.830;2022-11-20T15:46:05;27.42;;;13.65;;
63599;SDS011;49747;51.334;6.830;2022-11-20T15:48:37;30.17;;;13.88;;
63599;SDS011;49747;51.334;6.830;2022-11-20T15:53:59;27.95;;;12.63;;
63599;SDS011;49747;51.334;6.830;2022-11-20T15:56:28;23.88;;;12.25;;
63599;SDS011;49747;51.334;6.830;2022-11-20T15:58:54;25.50;;;12.38;;
63599;SDS011;49747;51.334;6.830;2022-11-20T16:01:21;26.13;;;12.55;;
63599;SDS011;49747;51.334;6.830;2022-11-20T16:03:48;23.98;;;12.82;;
63599;SDS011;49747;51.334;6.830;2022-11-20T16:06:15;27.05;;;12.98;;
63599;SDS011;49747;51.334;6.830;2022-11-20T16:08:44;25.75;;;12.90;;
63599;SDS011;49747;51.334;6.830;2022-11-20T16:11:12;26.50;;;13.18;;
63599;SDS011;49747;51.334;6.830;2022-11-20T16:13:40;25.63;;;12.68;;
63599;SDS011;49747;51.334;6.830;2022-11-20T16:16:27;23.08;;;12.00;;
63599;SDS011;49747;51.334;6.830;2022-11-20T16:18:57;23.33;;;12.43;;
63599;SDS011;49747;51.334;6.830;2022-11-20T16:21:24;23.58;;;11.65;;
63599;SDS011;49747;51.334;6.830;2022-11-20T16:23:57;26.77;;;12.45;;
63599;SDS011;49747;51.334;6.830;2022-11-20T16:26:24;25.17;;;13.10;;